createdAt,value
2019-03-15T00:00:51.449Z,6.57
2019-03-15T00:03:24.331Z,6.61
2019-03-15T00:05:57.467Z,6.60
2019-03-15T00:08:31.336Z,6.59
2019-03-15T00:11:04.406Z,6.59
2019-03-15T00:13:36.531Z,6.56
2019-03-15T00:16:09.813Z,6.55
2019-03-15T00:18:42.714Z,6.55
2019-03-15T00:21:15.770Z,6.59
2019-03-15T00:23:48.635Z,6.52
2019-03-15T00:26:21.668Z,6.55
2019-03-15T00:28:54.718Z,6.58
2019-03-15T00:31:27.628Z,6.59
2019-03-15T00:34:00.543Z,6.56
2019-03-15T00:36:33.351Z,6.58
2019-03-15T00:39:07.642Z,6.60
2019-03-15T00:41:40.580Z,6.61
2019-03-15T00:44:13.585Z,6.50
2019-03-15T00:46:46.452Z,6.38
2019-03-15T00:49:19.448Z,6.36
2019-03-15T00:51:52.640Z,6.46
2019-03-15T00:54:25.552Z,6.51
2019-03-15T00:56:58.287Z,6.51
2019-03-15T00:59:31.207Z,6.59
2019-03-15T01:02:04.144Z,6.51
2019-03-15T01:04:36.973Z,6.53
2019-03-15T01:07:09.926Z,6.57
2019-03-15T01:09:42.818Z,6.63
2019-03-15T01:12:15.284Z,6.61
2019-03-15T01:14:48.143Z,6.59
2019-03-15T01:17:21.129Z,6.58
2019-03-15T01:19:53.938Z,6.58
2019-03-15T01:22:26.833Z,6.59
2019-03-15T01:24:59.710Z,6.53
2019-03-15T01:27:32.820Z,6.58
2019-03-15T01:30:06.215Z,6.57
2019-03-15T01:32:39.089Z,6.60
2019-03-15T01:35:11.959Z,6.57
2019-03-15T01:37:44.756Z,6.54
2019-03-15T01:40:17.717Z,6.58
2019-03-15T01:42:50.671Z,6.53
2019-03-15T01:45:23.569Z,6.49
2019-03-15T01:47:56.424Z,6.47
2019-03-15T01:50:29.231Z,6.47
2019-03-15T01:53:02.234Z,6.44
2019-03-15T01:55:35.180Z,6.41
2019-03-15T01:58:08.160Z,6.42
2019-03-15T02:00:41.869Z,6.41
2019-03-15T02:03:14.666Z,6.38
2019-03-15T02:05:47.526Z,6.40
2019-03-15T02:08:20.839Z,6.37
2019-03-15T02:10:53.984Z,6.37
2019-03-15T02:13:26.913Z,6.37
2019-03-15T02:15:59.860Z,6.34
2019-03-15T02:18:32.715Z,6.33
2019-03-15T02:21:05.603Z,6.32
2019-03-15T02:23:38.393Z,6.32
2019-03-15T02:26:11.314Z,6.30
2019-03-15T02:28:44.147Z,6.28
2019-03-15T02:31:17.134Z,6.28
2019-03-15T02:33:49.994Z,6.27
2019-03-15T02:36:22.448Z,6.23
2019-03-15T02:38:54.532Z,6.20
2019-03-15T02:41:27.420Z,6.14
2019-03-15T02:44:00.330Z,6.17
2019-03-15T02:46:33.310Z,6.17
2019-03-15T02:49:06.456Z,6.19
2019-03-15T02:51:41.167Z,6.19
2019-03-15T02:54:14.074Z,6.15
2019-03-15T02:56:47.017Z,6.17
2019-03-15T02:59:21.033Z,6.15
2019-03-15T03:01:54.437Z,6.14
2019-03-15T03:04:27.218Z,6.14
2019-03-15T03:07:00.132Z,6.08
2019-03-15T03:09:34.179Z,6.05
2019-03-15T03:12:07.684Z,6.13
2019-03-15T03:14:40.689Z,6.08
2019-03-15T03:17:14.001Z,6.11
2019-03-15T03:19:47.015Z,6.05
2019-03-15T03:22:19.909Z,6.08
2019-03-15T03:24:51.894Z,6.09
2019-03-15T03:27:24.887Z,5.98
2019-03-15T03:29:56.933Z,5.92
2019-03-15T03:32:29.774Z,5.91
2019-03-15T03:35:02.809Z,5.90
2019-03-15T03:37:35.606Z,5.88
2019-03-15T03:40:08.744Z,5.94
2019-03-15T03:42:41.678Z,5.88
2019-03-15T03:45:14.555Z,5.83
2019-03-15T03:47:47.414Z,5.80
2019-03-15T03:50:20.222Z,5.78
2019-03-15T03:52:53.179Z,5.77
2019-03-15T03:55:26.000Z,5.90
2019-03-15T03:57:58.852Z,6.00
2019-03-15T04:00:31.785Z,6.15
2019-03-15T04:03:04.291Z,6.23
2019-03-15T04:05:37.529Z,6.17
2019-03-15T04:08:10.529Z,6.18
2019-03-15T04:10:43.407Z,6.10
2019-03-15T04:13:16.275Z,6.08
2019-03-15T04:15:49.162Z,6.04
2019-03-15T04:18:22.185Z,5.98
2019-03-15T04:20:55.267Z,5.98
2019-03-15T04:23:28.300Z,6.01
2019-03-15T04:26:02.711Z,5.97
2019-03-15T04:28:35.630Z,5.93
2019-03-15T04:31:08.593Z,5.80
2019-03-15T04:33:41.541Z,5.67
2019-03-15T04:36:14.560Z,5.60
2019-03-15T04:38:47.434Z,5.64
2019-03-15T04:41:20.388Z,5.66
2019-03-15T04:43:53.335Z,5.67
2019-03-15T04:46:26.250Z,5.69
2019-03-15T04:48:59.316Z,5.71
2019-03-15T04:51:32.265Z,5.71
2019-03-15T04:54:05.759Z,5.68
2019-03-15T04:56:38.780Z,5.67
2019-03-15T04:59:11.733Z,5.58
2019-03-15T05:01:44.538Z,5.54
2019-03-15T05:04:17.370Z,5.44
2019-03-15T05:06:50.154Z,5.50
2019-03-15T05:09:23.071Z,5.37
2019-03-15T05:11:56.094Z,5.38
2019-03-15T05:14:28.874Z,5.37
2019-03-15T05:17:02.181Z,5.41
2019-03-15T05:19:35.269Z,5.47
2019-03-15T05:22:09.888Z,5.46
2019-03-15T05:24:42.787Z,5.50
2019-03-15T05:27:15.681Z,5.45
2019-03-15T05:29:48.584Z,5.45
2019-03-15T05:32:21.664Z,5.45
2019-03-15T05:34:54.542Z,5.45
2019-03-15T05:37:27.435Z,5.55
2019-03-15T05:40:00.447Z,5.59
2019-03-15T05:42:33.297Z,5.55
2019-03-15T05:45:07.113Z,5.63
2019-03-15T05:47:40.058Z,5.73
2019-03-15T05:50:13.150Z,5.73
2019-03-15T05:52:46.084Z,5.75
2019-03-15T05:55:19.073Z,5.81
2019-03-15T05:57:51.976Z,5.81
2019-03-15T06:00:24.775Z,5.79
2019-03-15T06:02:57.686Z,5.86
2019-03-15T06:05:30.474Z,5.90
2019-03-15T06:08:03.358Z,5.87
2019-03-15T06:10:36.263Z,5.89
2019-03-15T06:13:09.215Z,5.98
2019-03-15T06:15:42.139Z,5.99
2019-03-15T06:18:14.979Z,6.06
2019-03-15T06:20:47.830Z,6.13
2019-03-15T06:23:20.612Z,6.10
2019-03-15T06:25:53.630Z,6.09
2019-03-15T06:28:25.695Z,6.09
2019-03-15T06:30:58.731Z,6.09
2019-03-15T06:33:33.508Z,6.05
2019-03-15T06:36:06.378Z,6.05
2019-03-15T06:38:38.438Z,6.01
2019-03-15T06:41:14.335Z,6.00
2019-03-15T06:43:45.965Z,6.07
2019-03-15T06:46:18.779Z,6.17
2019-03-15T06:48:52.300Z,6.15
2019-03-15T06:51:25.199Z,6.26
2019-03-15T06:54:10.505Z,6.36
2019-03-15T06:56:33.644Z,6.59
2019-03-15T06:59:06.104Z,6.60
2019-03-15T07:01:38.967Z,6.55
2019-03-15T07:04:11.901Z,6.52
2019-03-15T07:06:44.841Z,6.60
2019-03-15T07:09:17.610Z,6.73
2019-03-15T07:11:50.552Z,6.69
2019-03-15T07:14:23.466Z,6.75
2019-03-15T07:16:56.270Z,6.91
2019-03-15T07:19:30.640Z,6.98
2019-03-15T07:22:03.551Z,7.06
2019-03-15T07:24:36.516Z,7.12
2019-03-15T07:27:13.281Z,7.14
2019-03-15T07:29:44.264Z,7.04
2019-03-15T07:32:17.466Z,7.03
2019-03-15T07:34:50.487Z,7.16
2019-03-15T07:37:23.595Z,7.15
2019-03-15T07:39:56.464Z,7.20
2019-03-15T07:42:29.311Z,7.18
2019-03-15T07:45:02.287Z,7.34
2019-03-15T07:47:35.187Z,7.38
2019-03-15T07:50:09.539Z,7.31
2019-03-15T07:52:42.564Z,7.33
2019-03-15T07:55:15.697Z,7.39
2019-03-15T07:57:48.667Z,7.52
2019-03-15T08:00:21.847Z,7.48
2019-03-15T08:02:54.863Z,7.53
2019-03-15T08:05:27.741Z,7.56
2019-03-15T08:08:00.801Z,7.75
2019-03-15T08:10:33.802Z,7.74
2019-03-15T08:13:05.950Z,7.85
2019-03-15T08:15:38.936Z,7.74
2019-03-15T08:18:11.963Z,7.79
2019-03-15T08:20:44.897Z,7.98
2019-03-15T08:23:17.932Z,8.02
2019-03-15T08:25:50.950Z,8.04
2019-03-15T08:28:23.842Z,8.14
2019-03-15T08:30:56.895Z,8.15
2019-03-15T08:33:29.897Z,8.20
2019-03-15T08:36:02.952Z,8.28
2019-03-15T08:38:46.908Z,8.31
2019-03-15T08:41:10.537Z,8.39
2019-03-15T08:43:46.049Z,8.40
2019-03-15T08:46:18.204Z,8.48
2019-03-15T08:48:51.243Z,8.52
2019-03-15T08:51:24.350Z,8.53
2019-03-15T08:53:57.232Z,8.54
2019-03-15T08:56:30.214Z,8.53
2019-03-15T08:59:03.204Z,8.53
2019-03-15T09:01:36.128Z,8.49
2019-03-15T09:04:09.268Z,8.51
2019-03-15T09:06:42.211Z,8.52
2019-03-15T09:09:15.210Z,8.57
2019-03-15T09:11:48.287Z,8.62
2019-03-15T09:14:22.567Z,8.64
2019-03-15T09:16:55.472Z,8.72
2019-03-15T09:19:28.513Z,8.82
2019-03-15T09:22:01.153Z,8.86
2019-03-15T09:24:34.174Z,8.94
2019-03-15T09:27:10.233Z,9.02
2019-03-15T09:29:41.703Z,9.11
2019-03-15T09:32:14.731Z,9.10
2019-03-15T09:34:47.664Z,9.16
2019-03-15T09:37:20.624Z,9.18
2019-03-15T09:39:53.554Z,9.26
2019-03-15T09:42:26.402Z,9.28
2019-03-15T09:44:59.308Z,9.25
2019-03-15T09:47:33.833Z,9.24
2019-03-15T09:50:21.187Z,9.30
2019-03-15T09:52:42.504Z,9.26
2019-03-15T09:55:15.634Z,9.31
2019-03-15T09:57:48.573Z,9.30
2019-03-15T10:00:21.658Z,9.33
2019-03-15T10:02:56.213Z,9.34
2019-03-15T10:05:29.361Z,9.41
2019-03-15T10:08:02.379Z,9.47
2019-03-15T10:10:35.319Z,9.53
2019-03-15T10:13:08.175Z,9.58
2019-03-15T10:15:41.103Z,9.60
2019-03-15T10:18:14.241Z,9.64
2019-03-15T10:20:47.260Z,9.55
2019-03-15T10:23:20.274Z,9.54
2019-03-15T10:25:53.179Z,9.58
2019-03-15T10:28:26.098Z,9.51
2019-03-15T10:30:59.220Z,9.59
2019-03-15T10:33:32.053Z,9.57
2019-03-15T10:36:05.074Z,9.57
2019-03-15T10:38:37.933Z,9.63
2019-03-15T10:41:10.931Z,9.58
2019-03-15T10:43:43.878Z,9.61
2019-03-15T10:46:16.794Z,9.56
2019-03-15T10:48:49.672Z,9.67
2019-03-15T10:51:22.601Z,9.67
2019-03-15T10:53:55.438Z,9.70
2019-03-15T10:56:28.288Z,9.65
2019-03-15T10:59:03.272Z,9.63
2019-03-15T11:01:36.124Z,9.63
2019-03-15T11:04:08.991Z,9.67
2019-03-15T11:06:42.624Z,9.70
2019-03-15T11:09:15.517Z,9.72
2019-03-15T11:11:48.392Z,9.76
2019-03-15T11:14:21.262Z,9.78
2019-03-15T11:16:54.056Z,9.79
2019-03-15T11:19:26.920Z,9.82
2019-03-15T11:22:02.312Z,10.01
2019-03-15T11:24:35.155Z,10.08
2019-03-15T11:27:08.119Z,10.08
2019-03-15T11:29:41.026Z,10.10
2019-03-15T11:32:14.098Z,10.17
2019-03-15T11:34:47.009Z,10.24
2019-03-15T11:37:19.934Z,10.36
2019-03-15T11:39:52.848Z,10.34
2019-03-15T11:42:25.784Z,10.44
2019-03-15T11:44:58.635Z,10.43
2019-03-15T11:47:45.917Z,10.42
2019-03-15T11:50:08.664Z,10.48
2019-03-15T11:52:41.646Z,10.56
2019-03-15T11:55:14.764Z,10.52
2019-03-15T11:57:47.690Z,10.57
2019-03-15T12:00:20.967Z,10.54
2019-03-15T12:02:53.817Z,10.50
2019-03-15T12:05:26.757Z,10.53
2019-03-15T12:07:59.974Z,10.63
2019-03-15T12:10:34.724Z,10.59
2019-03-15T12:13:07.667Z,10.69
2019-03-15T12:15:40.611Z,10.66
2019-03-15T12:18:13.765Z,10.61
2019-03-15T12:20:49.238Z,10.55
2019-03-15T12:23:22.341Z,10.42
2019-03-15T12:25:55.314Z,10.34
2019-03-15T12:28:30.443Z,10.33
2019-03-15T12:31:03.409Z,10.34
2019-03-15T12:33:36.219Z,10.28
2019-03-15T12:36:09.266Z,10.15
2019-03-15T12:38:42.203Z,10.02
2019-03-15T12:41:15.119Z,9.99
2019-03-15T12:43:48.035Z,9.94
2019-03-15T12:46:20.160Z,9.95
2019-03-15T12:48:53.116Z,9.89
2019-03-15T12:51:31.971Z,9.89
2019-03-15T12:54:00.557Z,9.84
2019-03-15T12:56:35.465Z,9.82
2019-03-15T12:59:08.503Z,9.84
2019-03-15T13:01:42.851Z,9.86
2019-03-15T13:04:15.712Z,9.86
2019-03-15T13:06:49.090Z,9.91
2019-03-15T13:09:22.143Z,9.94
2019-03-15T13:11:54.982Z,9.97
2019-03-15T13:14:28.314Z,10.02
2019-03-15T13:17:01.268Z,10.05
2019-03-15T13:19:34.267Z,10.03
2019-03-15T13:22:07.302Z,10.05
2019-03-15T13:24:40.292Z,10.00
2019-03-15T13:27:13.257Z,9.90
2019-03-15T13:29:46.273Z,9.97
2019-03-15T13:32:19.167Z,9.96
2019-03-15T13:34:52.169Z,9.79
2019-03-15T13:37:25.014Z,9.71
2019-03-15T13:39:57.943Z,9.59
2019-03-15T13:42:30.814Z,9.49
2019-03-15T13:45:03.743Z,9.36
2019-03-15T13:47:36.638Z,9.31
2019-03-15T13:50:11.656Z,9.35
2019-03-15T13:52:44.690Z,9.37
2019-03-15T13:55:17.608Z,9.43
2019-03-15T13:57:50.498Z,9.51
2019-03-15T14:00:23.422Z,9.55
2019-03-15T14:02:56.451Z,9.43
2019-03-15T14:05:29.413Z,9.59
2019-03-15T14:08:11.827Z,9.70
2019-03-15T14:10:48.785Z,9.62
2019-03-15T14:13:12.133Z,9.57
2019-03-15T14:15:45.245Z,9.44
2019-03-15T14:18:21.304Z,9.33
2019-03-15T14:20:52.817Z,9.35
2019-03-15T14:23:25.647Z,9.49
2019-03-15T14:25:58.552Z,9.46
2019-03-15T14:28:31.444Z,9.54
2019-03-15T14:31:04.449Z,9.63
2019-03-15T14:33:37.361Z,9.78
2019-03-15T14:36:10.324Z,9.85
2019-03-15T14:38:43.082Z,9.95
2019-03-15T14:41:16.090Z,10.16
2019-03-15T14:43:49.174Z,10.16
2019-03-15T14:46:22.238Z,10.23
2019-03-15T14:48:55.105Z,10.17
2019-03-15T14:51:27.962Z,10.07
2019-03-15T14:54:00.831Z,10.08
2019-03-15T14:56:33.828Z,10.16
2019-03-15T14:59:06.788Z,10.19
2019-03-15T15:01:39.683Z,10.13
2019-03-15T15:04:12.699Z,10.14
2019-03-15T15:06:45.569Z,10.18
2019-03-15T15:09:18.476Z,10.21
2019-03-15T15:11:51.330Z,10.26
2019-03-15T15:14:24.363Z,10.24
2019-03-15T15:16:57.398Z,10.22
2019-03-15T15:19:30.390Z,10.16
2019-03-15T15:22:03.386Z,10.12
2019-03-15T15:24:36.342Z,10.15
2019-03-15T15:27:09.217Z,10.22
2019-03-15T15:29:42.127Z,10.34
2019-03-15T15:32:15.459Z,10.40
2019-03-15T15:34:48.772Z,10.40
2019-03-15T15:37:21.807Z,10.40
2019-03-15T15:39:54.663Z,10.21
2019-03-15T15:42:27.537Z,10.14
2019-03-15T15:45:00.511Z,10.22
2019-03-15T15:47:33.488Z,10.27
2019-03-15T15:50:06.786Z,10.27
2019-03-15T15:52:39.728Z,10.26
2019-03-15T15:55:12.624Z,10.29
2019-03-15T15:57:45.606Z,10.31
2019-03-15T16:00:18.325Z,10.37
2019-03-15T16:02:51.265Z,10.38
2019-03-15T16:05:24.258Z,10.40
2019-03-15T16:07:57.220Z,10.42
2019-03-15T16:10:30.124Z,10.48
2019-03-15T16:13:16.503Z,10.58
2019-03-15T16:15:37.611Z,10.64
2019-03-15T16:18:10.671Z,10.59
2019-03-15T16:20:43.520Z,10.59
2019-03-15T16:23:16.580Z,10.54
2019-03-15T16:25:48.779Z,10.49
2019-03-15T16:28:31.451Z,10.54
2019-03-15T16:30:59.375Z,10.55
2019-03-15T16:33:32.258Z,10.51
2019-03-15T16:36:05.184Z,10.43
2019-03-15T16:38:38.093Z,10.37
2019-03-15T16:41:10.988Z,10.22
2019-03-15T16:43:43.895Z,10.18
2019-03-15T16:46:16.806Z,10.19
2019-03-15T16:48:49.690Z,10.16
2019-03-15T16:51:22.592Z,10.11
2019-03-15T16:53:55.548Z,10.11
2019-03-15T16:56:28.433Z,10.10
2019-03-15T16:59:01.284Z,10.03
2019-03-15T17:01:34.211Z,9.98
2019-03-15T17:04:07.047Z,9.97
2019-03-15T17:06:39.999Z,9.96
2019-03-15T17:09:12.883Z,9.95
2019-03-15T17:11:45.845Z,9.92
2019-03-15T17:14:25.409Z,9.87
2019-03-15T17:16:53.394Z,9.80
2019-03-15T17:19:26.218Z,9.86
2019-03-15T17:21:59.100Z,9.89
2019-03-15T17:24:32.016Z,9.93
2019-03-15T17:27:05.123Z,9.86
2019-03-15T17:29:38.096Z,9.82
2019-03-15T17:32:11.127Z,9.81
2019-03-15T17:34:44.051Z,9.85
2019-03-15T17:37:16.964Z,9.86
2019-03-15T17:39:50.055Z,9.81
2019-03-15T17:42:22.890Z,9.73
2019-03-15T17:44:55.634Z,9.71
2019-03-15T17:47:28.642Z,9.68
2019-03-15T17:50:01.557Z,9.66
2019-03-15T17:52:34.565Z,9.66
2019-03-15T17:55:07.898Z,9.57
2019-03-15T17:57:41.196Z,9.51
2019-03-15T18:00:34.010Z,9.47
2019-03-15T18:03:19.905Z,9.46
2019-03-15T18:05:42.535Z,9.45
2019-03-15T18:08:15.675Z,9.43
2019-03-15T18:10:48.613Z,9.47
2019-03-15T18:13:21.558Z,9.41
2019-03-15T18:15:54.584Z,9.43
2019-03-15T18:18:27.454Z,9.44
2019-03-15T18:21:00.412Z,9.40
2019-03-15T18:23:33.298Z,9.44
2019-03-15T18:26:06.443Z,9.39
2019-03-15T18:28:39.314Z,9.38
2019-03-15T18:31:12.382Z,9.46
2019-03-15T18:33:45.381Z,9.38
2019-03-15T18:36:17.720Z,9.41
2019-03-15T18:38:50.572Z,9.45
2019-03-15T18:41:23.489Z,9.43
2019-03-15T18:43:56.417Z,9.49
2019-03-15T18:46:29.318Z,9.47
2019-03-15T18:49:03.527Z,9.37
2019-03-15T18:51:36.633Z,9.31
2019-03-15T18:54:17.534Z,9.30
2019-03-15T18:56:44.151Z,9.28
2019-03-15T18:59:17.131Z,9.23
2019-03-15T19:01:50.141Z,9.15
2019-03-15T19:04:23.126Z,9.12
2019-03-15T19:06:56.365Z,9.15
2019-03-15T19:09:29.213Z,9.13
2019-03-15T19:12:02.048Z,9.17
2019-03-15T19:14:34.551Z,9.10
2019-03-15T19:17:07.455Z,9.14
2019-03-15T19:19:40.664Z,9.18
2019-03-15T19:22:13.706Z,9.18
2019-03-15T19:24:46.659Z,9.20
2019-03-15T19:27:19.575Z,9.26
2019-03-15T19:29:53.940Z,9.28
2019-03-15T19:32:27.321Z,9.26
2019-03-15T19:35:00.445Z,9.27
2019-03-15T19:37:33.343Z,9.30
2019-03-15T19:40:08.581Z,9.25
2019-03-15T19:42:44.835Z,9.28
2019-03-15T19:45:16.303Z,9.33
2019-03-15T19:47:49.193Z,9.41
2019-03-15T19:50:22.102Z,9.42
2019-03-15T19:52:55.114Z,9.43
2019-03-15T19:55:28.221Z,9.35
2019-03-15T19:58:01.246Z,9.25
2019-03-15T20:00:36.790Z,9.22
2019-03-15T20:03:09.753Z,9.21
2019-03-15T20:05:42.751Z,9.19
2019-03-15T20:08:15.861Z,9.14
2019-03-15T20:10:48.724Z,9.10
2019-03-15T20:13:21.572Z,9.08
2019-03-15T20:15:54.508Z,8.97
2019-03-15T20:18:27.356Z,8.96
2019-03-15T20:21:00.202Z,8.97
2019-03-15T20:23:33.166Z,8.98
2019-03-15T20:26:06.505Z,8.96
2019-03-15T20:28:39.432Z,9.00
2019-03-15T20:31:12.526Z,9.01
2019-03-15T20:33:45.377Z,8.97
2019-03-15T20:36:18.529Z,9.03
2019-03-15T20:38:51.481Z,9.03
2019-03-15T20:41:24.322Z,9.03
2019-03-15T20:44:00.345Z,9.14
2019-03-15T20:46:36.015Z,9.13
2019-03-15T20:49:06.441Z,9.13
2019-03-15T20:51:39.397Z,9.13
2019-03-15T20:54:12.456Z,9.18
2019-03-15T20:56:45.564Z,9.17
2019-03-15T20:59:18.546Z,9.19
2019-03-15T21:01:51.600Z,9.20
2019-03-15T21:04:24.359Z,9.16
2019-03-15T21:06:57.565Z,9.17
2019-03-15T21:09:30.529Z,9.17
2019-03-15T21:12:03.454Z,9.19
2019-03-15T21:14:36.309Z,9.23
2019-03-15T21:17:09.270Z,9.30
2019-03-15T21:19:42.277Z,9.27
2019-03-15T21:22:15.262Z,9.27
2019-03-15T21:24:48.287Z,9.32
2019-03-15T21:27:21.273Z,9.30
2019-03-15T21:29:54.153Z,9.30
2019-03-15T21:32:27.223Z,9.23
2019-03-15T21:35:00.361Z,9.28
2019-03-15T21:37:33.477Z,9.29
2019-03-15T21:40:07.415Z,9.31
2019-03-15T21:42:40.332Z,9.31
2019-03-15T21:45:13.646Z,9.30
2019-03-15T21:47:46.692Z,9.39
2019-03-15T21:50:19.648Z,9.40
2019-03-15T21:52:52.598Z,9.43
2019-03-15T21:55:25.536Z,9.38
2019-03-15T21:57:58.459Z,9.35
2019-03-15T22:00:31.567Z,9.37
2019-03-15T22:03:04.582Z,9.31
2019-03-15T22:05:37.441Z,9.35
2019-03-15T22:08:10.429Z,9.24
2019-03-15T22:10:43.339Z,9.22
2019-03-15T22:13:16.199Z,9.24
2019-03-15T22:15:48.772Z,9.25
2019-03-15T22:18:21.617Z,9.25
2019-03-15T22:20:54.488Z,9.20
2019-03-15T22:23:27.423Z,9.17
2019-03-15T22:26:00.303Z,9.14
2019-03-15T22:28:33.206Z,9.08
2019-03-15T22:31:16.040Z,9.03
2019-03-15T22:33:40.729Z,9.01
2019-03-15T22:36:13.792Z,8.93
2019-03-15T22:38:46.727Z,8.90
2019-03-15T22:41:19.617Z,8.92
2019-03-15T22:43:52.589Z,8.92
2019-03-15T22:46:25.470Z,8.93
2019-03-15T22:48:58.259Z,8.90
2019-03-15T22:51:31.156Z,8.96
2019-03-15T22:54:04.038Z,8.94
2019-03-15T22:56:37.046Z,8.92
2019-03-15T22:59:09.892Z,8.94
2019-03-15T23:01:42.134Z,8.92
2019-03-15T23:04:15.232Z,8.83
2019-03-15T23:06:49.151Z,8.84
2019-03-15T23:09:21.990Z,8.79
2019-03-15T23:11:54.996Z,8.86
2019-03-15T23:14:27.827Z,8.84
2019-03-15T23:17:00.721Z,8.88
2019-03-15T23:19:33.887Z,8.83
2019-03-15T23:22:06.880Z,8.81
2019-03-15T23:24:39.730Z,8.87
2019-03-15T23:27:12.685Z,8.88
2019-03-15T23:29:45.558Z,8.87
2019-03-15T23:32:18.532Z,8.94
2019-03-15T23:34:51.437Z,8.94
2019-03-15T23:37:24.266Z,8.82
2019-03-15T23:39:57.197Z,8.87
2019-03-15T23:42:35.937Z,8.89
2019-03-15T23:45:05.551Z,8.81
2019-03-15T23:47:38.404Z,8.78
2019-03-15T23:50:15.055Z,8.82
2019-03-15T23:52:47.950Z,8.78
2019-03-15T23:55:20.910Z,8.80
2019-03-15T23:57:53.798Z,8.73
